Kincardine, Canada
Current Conditions -  °F | °C
As of 6:00 PM on Tuesday 27 Jan 2015 (Local Time) from CYVV Reporting Station
Clear Clear  
Wind Chill:   Ceiling: Unl
Heat Index: 16°   Visibility: 15mi
Dew Point:   Wind: 8mph
Humidity: 68%   Direction: 20°NNE
Pressure: 30.17"   Gusts: NA
Location:  44.18°N, 81.63°W
Report Text: CYVV 272300Z 02007KT 330V050 15SM SKC M09/M14 A3017 RMK SLP232
Loading
Personal Weather Stations






























Interactive Weather Map New forecast layout! Learn more

10-Day Weather Forecast

Advertisements
Track Severe Weather on mobile